sensor_id;sensor_type;location;lat;lon;timestamp;temperature;humidity
27492;DHT22;14927;51.210;6.838;2024-01-10T00:02:21;1.20;45.10
27492;DHT22;14927;51.210;6.838;2024-01-10T00:05:06;1.50;45.30
27492;DHT22;14927;51.210;6.838;2024-01-10T00:07:50;1.20;45.20
27492;DHT22;14927;51.210;6.838;2024-01-10T00:10:35;1.20;45.20
27492;DHT22;14927;51.210;6.838;2024-01-10T00:13:21;1.20;45.20
27492;DHT22;14927;51.210;6.838;2024-01-10T00:16:06;1.20;45.20
27492;DHT22;14927;51.210;6.838;2024-01-10T00:18:51;1.20;45.30
27492;DHT22;14927;51.210;6.838;2024-01-10T00:21:36;1.30;45.30
27492;DHT22;14927;51.210;6.838;2024-01-10T00:24:21;1.30;45.30
27492;DHT22;14927;51.210;6.838;2024-01-10T00:27:05;1.30;45.30
27492;DHT22;14927;51.210;6.838;2024-01-10T00:29:50;1.30;45.30
27492;DHT22;14927;51.210;6.838;2024-01-10T00:32:36;1.30;45.40
27492;DHT22;14927;51.210;6.838;2024-01-10T00:35:20;1.30;45.30
27492;DHT22;14927;51.210;6.838;2024-01-10T00:38:05;1.30;45.30
27492;DHT22;14927;51.210;6.838;2024-01-10T00:40:49;1.30;45.30
27492;DHT22;14927;51.210;6.838;2024-01-10T00:43:34;1.30;45.30
27492;DHT22;14927;51.210;6.838;2024-01-10T00:46:19;1.30;45.30
27492;DHT22;14927;51.210;6.838;2024-01-10T00:49:04;1.30;45.40
27492;DHT22;14927;51.210;6.838;2024-01-10T00:51:48;1.30;45.40
27492;DHT22;14927;51.210;6.838;2024-01-10T00:54:32;1.30;45.30
27492;DHT22;14927;51.210;6.838;2024-01-10T00:57:17;1.30;45.30
27492;DHT22;14927;51.210;6.838;2024-01-10T01:00:02;1.30;45.40
27492;DHT22;14927;51.210;6.838;2024-01-10T01:02:47;1.30;46.00
27492;DHT22;14927;51.210;6.838;2024-01-10T01:05:32;1.30;45.40
27492;DHT22;14927;51.210;6.838;2024-01-10T01:08:16;1.30;45.40
27492;DHT22;14927;51.210;6.838;2024-01-10T01:11:01;1.30;45.40
27492;DHT22;14927;51.210;6.838;2024-01-10T01:13:46;1.30;45.40
27492;DHT22;14927;51.210;6.838;2024-01-10T01:16:31;1.40;45.50
27492;DHT22;14927;51.210;6.838;2024-01-10T01:19:15;1.40;45.60
27492;DHT22;14927;51.210;6.838;2024-01-10T01:22:00;1.60;45.60
27492;DHT22;14927;51.210;6.838;2024-01-10T01:24:44;1.60;45.60
27492;DHT22;14927;51.210;6.838;2024-01-10T01:27:29;1.40;45.50
27492;DHT22;14927;51.210;6.838;2024-01-10T01:30:14;1.60;45.60
27492;DHT22;14927;51.210;6.838;2024-01-10T01:32:59;1.40;45.40
27492;DHT22;14927;51.210;6.838;2024-01-10T01:35:44;1.40;45.40
27492;DHT22;14927;51.210;6.838;2024-01-10T01:38:28;1.40;45.40
27492;DHT22;14927;51.210;6.838;2024-01-10T01:41:13;1.40;45.40
27492;DHT22;14927;51.210;6.838;2024-01-10T01:43:59;1.40;45.40
27492;DHT22;14927;51.210;6.838;2024-01-10T01:46:44;1.40;45.30
27492;DHT22;14927;51.210;6.838;2024-01-10T01:49:30;1.40;45.20
27492;DHT22;14927;51.210;6.838;2024-01-10T01:52:15;1.40;45.20
27492;DHT22;14927;51.210;6.838;2024-01-10T01:55:00;1.40;45.20
27492;DHT22;14927;51.210;6.838;2024-01-10T01:57:45;1.40;45.20
27492;DHT22;14927;51.210;6.838;2024-01-10T02:00:33;1.40;45.20
27492;DHT22;14927;51.210;6.838;2024-01-10T02:03:18;1.30;45.20
27492;DHT22;14927;51.210;6.838;2024-01-10T02:06:04;1.40;45.20
27492;DHT22;14927;51.210;6.838;2024-01-10T02:08:49;1.40;45.20
27492;DHT22;14927;51.210;6.838;2024-01-10T02:11:36;1.40;45.20
27492;DHT22;14927;51.210;6.838;2024-01-10T02:14:21;1.40;45.30
27492;DHT22;14927;51.210;6.838;2024-01-10T02:17:06;1.50;45.50
27492;DHT22;14927;51.210;6.838;2024-01-10T02:20:14;1.30;45.50
27492;DHT22;14927;51.210;6.838;2024-01-10T02:23:02;1.30;45.60
27492;DHT22;14927;51.210;6.838;2024-01-10T02:25:46;1.30;45.60
27492;DHT22;14927;51.210;6.838;2024-01-10T02:28:31;1.50;45.80
27492;DHT22;14927;51.210;6.838;2024-01-10T02:31:16;1.50;45.80
27492;DHT22;14927;51.210;6.838;2024-01-10T02:34:01;1.30;45.80
27492;DHT22;14927;51.210;6.838;2024-01-10T02:36:45;1.20;45.90
27492;DHT22;14927;51.210;6.838;2024-01-10T02:39:30;1.20;45.80
27492;DHT22;14927;51.210;6.838;2024-01-10T02:42:15;1.20;45.80
27492;DHT22;14927;51.210;6.838;2024-01-10T02:44:59;1.40;45.90
27492;DHT22;14927;51.210;6.838;2024-01-10T02:47:45;1.20;45.90
27492;DHT22;14927;51.210;6.838;2024-01-10T02:50:29;0.90;45.80
27492;DHT22;14927;51.210;6.838;2024-01-10T02:53:14;1.20;46.00
27492;DHT22;14927;51.210;6.838;2024-01-10T02:55:59;1.20;46.10
27492;DHT22;14927;51.210;6.838;2024-01-10T02:58:44;1.20;46.20
27492;DHT22;14927;51.210;6.838;2024-01-10T03:01:28;1.10;46.80
27492;DHT22;14927;51.210;6.838;2024-01-10T03:04:13;1.20;46.30
27492;DHT22;14927;51.210;6.838;2024-01-10T03:06:58;1.10;46.20
27492;DHT22;14927;51.210;6.838;2024-01-10T03:09:42;1.10;46.30
27492;DHT22;14927;51.210;6.838;2024-01-10T03:12:27;1.20;46.30
27492;DHT22;14927;51.210;6.838;2024-01-10T03:15:12;1.30;46.40
27492;DHT22;14927;51.210;6.838;2024-01-10T03:17:56;1.10;46.40
27492;DHT22;14927;51.210;6.838;2024-01-10T03:20:41;1.00;46.50
27492;DHT22;14927;51.210;6.838;2024-01-10T03:23:26;1.10;46.60
27492;DHT22;14927;51.210;6.838;2024-01-10T03:26:11;1.00;46.60
27492;DHT22;14927;51.210;6.838;2024-01-10T03:28:56;1.00;46.70
27492;DHT22;14927;51.210;6.838;2024-01-10T03:31:41;1.20;46.70
27492;DHT22;14927;51.210;6.838;2024-01-10T03:34:26;1.00;46.60
27492;DHT22;14927;51.210;6.838;2024-01-10T03:37:11;1.00;46.60
27492;DHT22;14927;51.210;6.838;2024-01-10T03:39:55;0.90;46.70
27492;DHT22;14927;51.210;6.838;2024-01-10T03:42:40;1.00;46.70
27492;DHT22;14927;51.210;6.838;2024-01-10T03:45:24;0.90;46.60
27492;DHT22;14927;51.210;6.838;2024-01-10T03:48:09;0.90;46.60
27492;DHT22;14927;51.210;6.838;2024-01-10T03:50:53;0.90;47.30
27492;DHT22;14927;51.210;6.838;2024-01-10T03:53:38;0.90;46.60
27492;DHT22;14927;51.210;6.838;2024-01-10T03:56:23;0.80;46.60
27492;DHT22;14927;51.210;6.838;2024-01-10T03:59:07;1.00;46.70
27492;DHT22;14927;51.210;6.838;2024-01-10T04:01:52;0.90;47.30
27492;DHT22;14927;51.210;6.838;2024-01-10T04:04:37;0.90;46.70
27492;DHT22;14927;51.210;6.838;2024-01-10T04:07:23;0.80;46.70
27492;DHT22;14927;51.210;6.838;2024-01-10T04:10:08;1.10;46.80
27492;DHT22;14927;51.210;6.838;2024-01-10T04:12:54;0.70;46.50
27492;DHT22;14927;51.210;6.838;2024-01-10T04:15:38;0.70;46.30
27492;DHT22;14927;51.210;6.838;2024-01-10T04:18:23;1.00;46.40
27492;DHT22;14927;51.210;6.838;2024-01-10T04:21:07;0.80;46.80
27492;DHT22;14927;51.210;6.838;2024-01-10T04:23:52;0.70;46.20
27492;DHT22;14927;51.210;6.838;2024-01-10T04:26:37;0.70;46.10
27492;DHT22;14927;51.210;6.838;2024-01-10T04:29:21;0.70;46.00
27492;DHT22;14927;51.210;6.838;2024-01-10T04:32:06;0.60;45.90
27492;DHT22;14927;51.210;6.838;2024-01-10T04:34:51;0.60;45.90
27492;DHT22;14927;51.210;6.838;2024-01-10T04:37:36;0.80;46.10
27492;DHT22;14927;51.210;6.838;2024-01-10T04:40:20;0.80;46.10
27492;DHT22;14927;51.210;6.838;2024-01-10T04:43:05;0.50;46.10
27492;DHT22;14927;51.210;6.838;2024-01-10T04:45:49;0.50;46.20
27492;DHT22;14927;51.210;6.838;2024-01-10T04:48:34;0.40;46.20
27492;DHT22;14927;51.210;6.838;2024-01-10T04:51:19;0.40;46.30
27492;DHT22;14927;51.210;6.838;2024-01-10T04:54:04;0.50;47.00
27492;DHT22;14927;51.210;6.838;2024-01-10T04:56:48;0.40;46.30
27492;DHT22;14927;51.210;6.838;2024-01-10T04:59:33;0.40;46.40
27492;DHT22;14927;51.210;6.838;2024-01-10T05:02:18;0.40;46.50
27492;DHT22;14927;51.210;6.838;2024-01-10T05:05:03;0.40;46.50
27492;DHT22;14927;51.210;6.838;2024-01-10T05:07:48;0.40;46.50
27492;DHT22;14927;51.210;6.838;2024-01-10T05:10:33;0.40;46.40
27492;DHT22;14927;51.210;6.838;2024-01-10T05:13:17;0.40;46.50
27492;DHT22;14927;51.210;6.838;2024-01-10T05:16:02;0.40;46.50
27492;DHT22;14927;51.210;6.838;2024-01-10T05:18:47;0.40;46.50
27492;DHT22;14927;51.210;6.838;2024-01-10T05:21:32;0.40;46.60
27492;DHT22;14927;51.210;6.838;2024-01-10T05:24:17;0.40;46.70
27492;DHT22;14927;51.210;6.838;2024-01-10T05:27:04;0.30;46.80
27492;DHT22;14927;51.210;6.838;2024-01-10T05:29:49;0.40;46.80
27492;DHT22;14927;51.210;6.838;2024-01-10T05:32:34;0.30;46.80
27492;DHT22;14927;51.210;6.838;2024-01-10T05:35:18;0.60;47.00
27492;DHT22;14927;51.210;6.838;2024-01-10T05:38:03;0.30;46.90
27492;DHT22;14927;51.210;6.838;2024-01-10T05:40:48;0.40;47.00
27492;DHT22;14927;51.210;6.838;2024-01-10T05:43:33;0.40;47.00
27492;DHT22;14927;51.210;6.838;2024-01-10T05:46:17;0.60;47.10
27492;DHT22;14927;51.210;6.838;2024-01-10T05:49:04;0.40;47.00
27492;DHT22;14927;51.210;6.838;2024-01-10T05:51:48;0.40;47.00
27492;DHT22;14927;51.210;6.838;2024-01-10T05:54:34;0.40;46.90
27492;DHT22;14927;51.210;6.838;2024-01-10T05:57:18;0.40;46.80
27492;DHT22;14927;51.210;6.838;2024-01-10T06:00:05;0.40;46.80
27492;DHT22;14927;51.210;6.838;2024-01-10T06:02:54;0.40;46.80
27492;DHT22;14927;51.210;6.838;2024-01-10T06:05:39;0.40;46.90
27492;DHT22;14927;51.210;6.838;2024-01-10T06:08:24;0.40;47.00
27492;DHT22;14927;51.210;6.838;2024-01-10T06:11:10;0.40;47.00
27492;DHT22;14927;51.210;6.838;2024-01-10T06:13:54;0.50;47.10
27492;DHT22;14927;51.210;6.838;2024-01-10T06:16:39;0.40;47.10
27492;DHT22;14927;51.210;6.838;2024-01-10T06:19:24;0.50;47.20
27492;DHT22;14927;51.210;6.838;2024-01-10T06:22:08;0.40;47.10
27492;DHT22;14927;51.210;6.838;2024-01-10T06:24:54;0.40;47.20
27492;DHT22;14927;51.210;6.838;2024-01-10T06:27:39;0.40;47.10
27492;DHT22;14927;51.210;6.838;2024-01-10T06:30:24;0.20;47.00
27492;DHT22;14927;51.210;6.838;2024-01-10T06:33:09;0.70;47.40
27492;DHT22;14927;51.210;6.838;2024-01-10T06:35:53;0.70;47.30
27492;DHT22;14927;51.210;6.838;2024-01-10T06:38:39;0.50;47.20
27492;DHT22;14927;51.210;6.838;2024-01-10T06:41:24;0.50;47.20
27492;DHT22;14927;51.210;6.838;2024-01-10T06:44:09;0.50;47.20
27492;DHT22;14927;51.210;6.838;2024-01-10T06:46:56;0.60;47.30
27492;DHT22;14927;51.210;6.838;2024-01-10T06:49:41;0.50;47.10
27492;DHT22;14927;51.210;6.838;2024-01-10T06:52:25;0.50;47.20
27492;DHT22;14927;51.210;6.838;2024-01-10T06:55:10;0.70;47.30
27492;DHT22;14927;51.210;6.838;2024-01-10T06:57:55;0.70;47.30
27492;DHT22;14927;51.210;6.838;2024-01-10T07:00:39;0.50;47.20
27492;DHT22;14927;51.210;6.838;2024-01-10T07:03:24;0.50;47.20
27492;DHT22;14927;51.210;6.838;2024-01-10T07:06:09;0.70;47.40
27492;DHT22;14927;51.210;6.838;2024-01-10T07:08:53;0.50;47.40
27492;DHT22;14927;51.210;6.838;2024-01-10T07:11:38;0.50;47.30
27492;DHT22;14927;51.210;6.838;2024-01-10T07:14:24;0.50;47.40
27492;DHT22;14927;51.210;6.838;2024-01-10T07:17:09;0.50;47.30
27492;DHT22;14927;51.210;6.838;2024-01-10T07:19:53;0.50;47.90
27492;DHT22;14927;51.210;6.838;2024-01-10T07:22:40;0.60;47.30
27492;DHT22;14927;51.210;6.838;2024-01-10T07:25:28;0.70;47.30
27492;DHT22;14927;51.210;6.838;2024-01-10T07:28:12;0.60;47.20
27492;DHT22;14927;51.210;6.838;2024-01-10T07:30:57;0.60;47.20
27492;DHT22;14927;51.210;6.838;2024-01-10T07:33:42;0.50;47.10
27492;DHT22;14927;51.210;6.838;2024-01-10T07:36:27;0.60;47.20
27492;DHT22;14927;51.210;6.838;2024-01-10T07:39:14;0.60;47.20
27492;DHT22;14927;51.210;6.838;2024-01-10T07:42:02;0.60;47.20
27492;DHT22;14927;51.210;6.838;2024-01-10T07:44:46;0.70;47.20
27492;DHT22;14927;51.210;6.838;2024-01-10T07:47:32;0.60;47.20
27492;DHT22;14927;51.210;6.838;2024-01-10T07:50:23;0.60;47.20
27492;DHT22;14927;51.210;6.838;2024-01-10T07:53:11;0.70;47.30
27492;DHT22;14927;51.210;6.838;2024-01-10T07:55:57;0.90;47.40
27492;DHT22;14927;51.210;6.838;2024-01-10T07:58:42;0.70;47.20
27492;DHT22;14927;51.210;6.838;2024-01-10T08:01:27;0.70;47.20
27492;DHT22;14927;51.210;6.838;2024-01-10T08:04:12;0.70;47.20
27492;DHT22;14927;51.210;6.838;2024-01-10T08:06:56;0.70;47.20
27492;DHT22;14927;51.210;6.838;2024-01-10T08:09:41;0.90;47.30
27492;DHT22;14927;51.210;6.838;2024-01-10T08:12:28;0.90;47.30
27492;DHT22;14927;51.210;6.838;2024-01-10T08:15:13;0.70;47.20
27492;DHT22;14927;51.210;6.838;2024-01-10T08:17:58;0.70;47.20
27492;DHT22;14927;51.210;6.838;2024-01-10T08:20:43;1.00;47.30
27492;DHT22;14927;51.210;6.838;2024-01-10T08:23:28;0.90;47.30
27492;DHT22;14927;51.210;6.838;2024-01-10T08:26:13;1.00;47.30
27492;DHT22;14927;51.210;6.838;2024-01-10T08:28:57;0.80;47.20
27492;DHT22;14927;51.210;6.838;2024-01-10T08:31:42;0.80;47.20
27492;DHT22;14927;51.210;6.838;2024-01-10T08:34:27;0.90;47.30
27492;DHT22;14927;51.210;6.838;2024-01-10T08:37:14;0.80;47.30
27492;DHT22;14927;51.210;6.838;2024-01-10T08:40:01;0.80;47.40
27492;DHT22;14927;51.210;6.838;2024-01-10T08:42:52;0.90;47.30
27492;DHT22;14927;51.210;6.838;2024-01-10T08:45:36;0.90;47.30
27492;DHT22;14927;51.210;6.838;2024-01-10T08:48:21;1.00;47.40
27492;DHT22;14927;51.210;6.838;2024-01-10T08:51:06;1.00;47.40
27492;DHT22;14927;51.210;6.838;2024-01-10T08:53:50;1.00;47.40
27492;DHT22;14927;51.210;6.838;2024-01-10T08:56:35;1.00;47.40
27492;DHT22;14927;51.210;6.838;2024-01-10T08:59:19;1.10;47.50
27492;DHT22;14927;51.210;6.838;2024-01-10T09:02:04;1.20;47.40
27492;DHT22;14927;51.210;6.838;2024-01-10T09:04:51;1.30;47.30
27492;DHT22;14927;51.210;6.838;2024-01-10T09:07:36;1.20;47.30
27492;DHT22;14927;51.210;6.838;2024-01-10T09:10:21;1.30;47.30
27492;DHT22;14927;51.210;6.838;2024-01-10T09:13:06;1.30;47.30
27492;DHT22;14927;51.210;6.838;2024-01-10T09:15:51;1.30;47.20
27492;DHT22;14927;51.210;6.838;2024-01-10T09:18:36;1.60;47.20
27492;DHT22;14927;51.210;6.838;2024-01-10T09:21:21;1.40;47.10
27492;DHT22;14927;51.210;6.838;2024-01-10T09:24:05;1.50;47.00
27492;DHT22;14927;51.210;6.838;2024-01-10T09:26:53;1.50;47.00
27492;DHT22;14927;51.210;6.838;2024-01-10T09:29:40;1.70;47.10
27492;DHT22;14927;51.210;6.838;2024-01-10T09:32:25;1.60;46.90
27492;DHT22;14927;51.210;6.838;2024-01-10T09:35:09;1.60;46.80
27492;DHT22;14927;51.210;6.838;2024-01-10T09:37:54;1.70;46.80
27492;DHT22;14927;51.210;6.838;2024-01-10T09:40:39;1.70;46.80
27492;DHT22;14927;51.210;6.838;2024-01-10T09:43:23;1.70;46.80
27492;DHT22;14927;51.210;6.838;2024-01-10T09:46:08;1.80;46.80
27492;DHT22;14927;51.210;6.838;2024-01-10T09:48:54;1.90;46.80
27492;DHT22;14927;51.210;6.838;2024-01-10T09:51:39;1.90;46.70
27492;DHT22;14927;51.210;6.838;2024-01-10T09:54:26;2.10;47.30
27492;DHT22;14927;51.210;6.838;2024-01-10T09:57:10;2.00;46.50
27492;DHT22;14927;51.210;6.838;2024-01-10T09:59:55;2.10;46.50
27492;DHT22;14927;51.210;6.838;2024-01-10T10:02:40;2.20;46.40
27492;DHT22;14927;51.210;6.838;2024-01-10T10:05:25;2.20;46.30
27492;DHT22;14927;51.210;6.838;2024-01-10T10:08:14;2.30;46.20
27492;DHT22;14927;51.210;6.838;2024-01-10T10:10:59;2.30;45.90
27492;DHT22;14927;51.210;6.838;2024-01-10T10:13:44;2.40;45.90
27492;DHT22;14927;51.210;6.838;2024-01-10T10:16:29;2.50;45.80
27492;DHT22;14927;51.210;6.838;2024-01-10T10:19:22;2.80;45.90
27492;DHT22;14927;51.210;6.838;2024-01-10T10:22:08;2.50;45.50
27492;DHT22;14927;51.210;6.838;2024-01-10T10:24:56;2.60;45.60
27492;DHT22;14927;51.210;6.838;2024-01-10T10:27:41;2.70;45.60
27492;DHT22;14927;51.210;6.838;2024-01-10T10:30:26;2.80;45.40
27492;DHT22;14927;51.210;6.838;2024-01-10T10:33:11;3.00;45.20
27492;DHT22;14927;51.210;6.838;2024-01-10T10:35:56;2.90;45.00
27492;DHT22;14927;51.210;6.838;2024-01-10T10:38:40;2.90;44.80
27492;DHT22;14927;51.210;6.838;2024-01-10T10:41:25;3.20;44.80
27492;DHT22;14927;51.210;6.838;2024-01-10T10:44:17;3.00;44.40
27492;DHT22;14927;51.210;6.838;2024-01-10T10:47:06;3.30;44.40
27492;DHT22;14927;51.210;6.838;2024-01-10T10:49:54;3.10;44.20
27492;DHT22;14927;51.210;6.838;2024-01-10T10:52:44;3.20;44.30
27492;DHT22;14927;51.210;6.838;2024-01-10T10:55:31;3.30;44.10
27492;DHT22;14927;51.210;6.838;2024-01-10T10:58:18;3.30;44.00
27492;DHT22;14927;51.210;6.838;2024-01-10T11:01:04;3.40;44.00
27492;DHT22;14927;51.210;6.838;2024-01-10T11:03:50;3.50;43.90
27492;DHT22;14927;51.210;6.838;2024-01-10T11:06:35;3.50;43.70
27492;DHT22;14927;51.210;6.838;2024-01-10T11:09:20;3.60;44.00
27492;DHT22;14927;51.210;6.838;2024-01-10T11:19:03;3.80;42.40
27492;DHT22;14927;51.210;6.838;2024-01-10T11:25:26;4.00;42.70
27492;DHT22;14927;51.210;6.838;2024-01-10T11:28:13;4.00;42.50
27492;DHT22;14927;51.210;6.838;2024-01-10T11:30:59;4.10;42.60
27492;DHT22;14927;51.210;6.838;2024-01-10T11:33:45;4.30;42.70
27492;DHT22;14927;51.210;6.838;2024-01-10T11:36:33;4.30;42.80
27492;DHT22;14927;51.210;6.838;2024-01-10T11:39:19;4.40;42.50
27492;DHT22;14927;51.210;6.838;2024-01-10T11:42:04;4.60;42.30
27492;DHT22;14927;51.210;6.838;2024-01-10T11:44:50;4.50;42.10
27492;DHT22;14927;51.210;6.838;2024-01-10T11:47:39;4.70;42.10
27492;DHT22;14927;51.210;6.838;2024-01-10T11:50:25;4.80;42.30
27492;DHT22;14927;51.210;6.838;2024-01-10T11:53:10;5.10;41.80
27492;DHT22;14927;51.210;6.838;2024-01-10T11:55:56;5.00;41.50
27492;DHT22;14927;51.210;6.838;2024-01-10T11:59:02;5.10;41.30
27492;DHT22;14927;51.210;6.838;2024-01-10T12:01:54;5.20;40.60
27492;DHT22;14927;51.210;6.838;2024-01-10T12:04:40;5.30;41.00
27492;DHT22;14927;51.210;6.838;2024-01-10T12:07:25;5.40;41.10
27492;DHT22;14927;51.210;6.838;2024-01-10T12:10:11;5.50;41.10
27492;DHT22;14927;51.210;6.838;2024-01-10T12:12:56;5.60;40.70
27492;DHT22;14927;51.210;6.838;2024-01-10T12:15:41;5.70;40.40
27492;DHT22;14927;51.210;6.838;2024-01-10T12:18:26;5.80;40.30
27492;DHT22;14927;51.210;6.838;2024-01-10T12:21:11;5.80;40.10
27492;DHT22;14927;51.210;6.838;2024-01-10T12:23:56;5.90;40.00
27492;DHT22;14927;51.210;6.838;2024-01-10T12:26:46;6.00;40.10
27492;DHT22;14927;51.210;6.838;2024-01-10T12:29:32;6.00;40.00
27492;DHT22;14927;51.210;6.838;2024-01-10T12:32:20;6.30;40.10
27492;DHT22;14927;51.210;6.838;2024-01-10T12:35:06;6.30;39.80
27492;DHT22;14927;51.210;6.838;2024-01-10T12:37:55;6.10;39.70
27492;DHT22;14927;51.210;6.838;2024-01-10T12:40:40;6.10;39.40
27492;DHT22;14927;51.210;6.838;2024-01-10T12:43:25;6.10;39.50
27492;DHT22;14927;51.210;6.838;2024-01-10T12:46:11;6.10;39.40
27492;DHT22;14927;51.210;6.838;2024-01-10T12:49:05;6.20;39.40
27492;DHT22;14927;51.210;6.838;2024-01-10T12:51:51;6.10;39.10
27492;DHT22;14927;51.210;6.838;2024-01-10T12:54:36;6.20;39.30
27492;DHT22;14927;51.210;6.838;2024-01-10T12:57:21;6.10;39.30
27492;DHT22;14927;51.210;6.838;2024-01-10T13:00:07;6.10;39.20
27492;DHT22;14927;51.210;6.838;2024-01-10T13:02:52;6.10;39.30
27492;DHT22;14927;51.210;6.838;2024-01-10T13:05:37;6.10;39.50
27492;DHT22;14927;51.210;6.838;2024-01-10T13:08:23;6.10;39.50
27492;DHT22;14927;51.210;6.838;2024-01-10T13:11:08;5.90;39.50
27492;DHT22;14927;51.210;6.838;2024-01-10T13:13:53;6.10;39.70
27492;DHT22;14927;51.210;6.838;2024-01-10T13:16:38;6.10;39.60
27492;DHT22;14927;51.210;6.838;2024-01-10T13:19:23;6.30;39.80
27492;DHT22;14927;51.210;6.838;2024-01-10T13:22:08;6.00;39.60
27492;DHT22;14927;51.210;6.838;2024-01-10T13:24:53;6.00;39.70
27492;DHT22;14927;51.210;6.838;2024-01-10T13:27:38;6.00;39.80
27492;DHT22;14927;51.210;6.838;2024-01-10T13:30:23;6.00;39.90
27492;DHT22;14927;51.210;6.838;2024-01-10T13:33:07;6.00;40.10
27492;DHT22;14927;51.210;6.838;2024-01-10T13:35:53;5.90;40.20
27492;DHT22;14927;51.210;6.838;2024-01-10T13:38:38;5.90;40.10
27492;DHT22;14927;51.210;6.838;2024-01-10T13:41:22;6.20;40.20
27492;DHT22;14927;51.210;6.838;2024-01-10T13:44:07;5.90;40.10
27492;DHT22;14927;51.210;6.838;2024-01-10T13:46:52;6.00;40.20
27492;DHT22;14927;51.210;6.838;2024-01-10T13:49:37;6.00;40.30
27492;DHT22;14927;51.210;6.838;2024-01-10T13:52:22;5.90;40.30
27492;DHT22;14927;51.210;6.838;2024-01-10T13:55:07;6.10;40.30
27492;DHT22;14927;51.210;6.838;2024-01-10T13:57:53;5.90;40.10
27492;DHT22;14927;51.210;6.838;2024-01-10T14:00:40;5.90;40.20
27492;DHT22;14927;51.210;6.838;2024-01-10T14:03:25;5.90;40.20
27492;DHT22;14927;51.210;6.838;2024-01-10T14:06:11;5.90;40.20
27492;DHT22;14927;51.210;6.838;2024-01-10T14:08:56;6.00;40.30
27492;DHT22;14927;51.210;6.838;2024-01-10T14:11:42;6.00;40.40
27492;DHT22;14927;51.210;6.838;2024-01-10T14:14:29;6.00;40.40
27492;DHT22;14927;51.210;6.838;2024-01-10T14:17:16;6.00;40.30
27492;DHT22;14927;51.210;6.838;2024-01-10T14:20:00;6.00;40.40
27492;DHT22;14927;51.210;6.838;2024-01-10T14:22:45;6.00;40.50
27492;DHT22;14927;51.210;6.838;2024-01-10T14:25:29;6.00;40.60
27492;DHT22;14927;51.210;6.838;2024-01-10T14:28:14;6.10;40.60
27492;DHT22;14927;51.210;6.838;2024-01-10T14:30:59;6.10;40.60
27492;DHT22;14927;51.210;6.838;2024-01-10T14:33:44;6.00;40.60
27492;DHT22;14927;51.210;6.838;2024-01-10T14:36:29;6.10;40.70
27492;DHT22;14927;51.210;6.838;2024-01-10T14:39:14;6.10;40.70
27492;DHT22;14927;51.210;6.838;2024-01-10T14:41:59;6.10;40.80
27492;DHT22;14927;51.210;6.838;2024-01-10T14:44:44;6.20;40.90
27492;DHT22;14927;51.210;6.838;2024-01-10T14:47:29;6.10;40.90
27492;DHT22;14927;51.210;6.838;2024-01-10T14:50:14;6.10;41.00
27492;DHT22;14927;51.210;6.838;2024-01-10T14:52:59;6.10;41.00
27492;DHT22;14927;51.210;6.838;2024-01-10T14:55:45;6.10;41.10
27492;DHT22;14927;51.210;6.838;2024-01-10T14:58:30;6.10;41.20
27492;DHT22;14927;51.210;6.838;2024-01-10T15:01:15;6.10;41.20
27492;DHT22;14927;51.210;6.838;2024-01-10T15:04:00;6.10;41.20
27492;DHT22;14927;51.210;6.838;2024-01-10T15:06:45;6.10;41.20
27492;DHT22;14927;51.210;6.838;2024-01-10T15:09:30;6.10;41.30
27492;DHT22;14927;51.210;6.838;2024-01-10T15:12:15;6.00;41.30
27492;DHT22;14927;51.210;6.838;2024-01-10T15:15:00;6.10;41.40
27492;DHT22;14927;51.210;6.838;2024-01-10T15:17:45;6.10;41.40
27492;DHT22;14927;51.210;6.838;2024-01-10T15:20:30;6.00;41.50
27492;DHT22;14927;51.210;6.838;2024-01-10T15:23:14;5.90;41.50
27492;DHT22;14927;51.210;6.838;2024-01-10T15:25:59;5.90;41.60
27492;DHT22;14927;51.210;6.838;2024-01-10T15:28:44;5.80;41.70
27492;DHT22;14927;51.210;6.838;2024-01-10T15:31:29;6.10;41.90
27492;DHT22;14927;51.210;6.838;2024-01-10T15:34:14;5.80;41.90
27492;DHT22;14927;51.210;6.838;2024-01-10T15:36:58;5.80;42.00
27492;DHT22;14927;51.210;6.838;2024-01-10T15:39:43;5.70;42.00
27492;DHT22;14927;51.210;6.838;2024-01-10T15:42:28;5.70;42.10
27492;DHT22;14927;51.210;6.838;2024-01-10T15:45:12;5.70;42.20
27492;DHT22;14927;51.210;6.838;2024-01-10T15:47:58;5.70;42.30
27492;DHT22;14927;51.210;6.838;2024-01-10T15:50:42;5.60;42.20
27492;DHT22;14927;51.210;6.838;2024-01-10T15:53:27;5.60;42.30
27492;DHT22;14927;51.210;6.838;2024-01-10T15:56:12;5.60;42.30
27492;DHT22;14927;51.210;6.838;2024-01-10T15:58:57;5.50;42.30
27492;DHT22;14927;51.210;6.838;2024-01-10T16:01:42;5.50;42.40
27492;DHT22;14927;51.210;6.838;2024-01-10T16:04:27;5.50;42.40
27492;DHT22;14927;51.210;6.838;2024-01-10T16:07:12;5.70;42.60
27492;DHT22;14927;51.210;6.838;2024-01-10T16:09:57;5.40;42.50
27492;DHT22;14927;51.210;6.838;2024-01-10T16:12:42;5.50;42.60
27492;DHT22;14927;51.210;6.838;2024-01-10T16:15:26;5.60;42.70
27492;DHT22;14927;51.210;6.838;2024-01-10T16:18:11;5.40;42.70
27492;DHT22;14927;51.210;6.838;2024-01-10T16:20:57;5.30;42.80
27492;DHT22;14927;51.210;6.838;2024-01-10T16:23:42;5.30;42.80
27492;DHT22;14927;51.210;6.838;2024-01-10T16:26:27;5.30;42.80
27492;DHT22;14927;51.210;6.838;2024-01-10T16:29:12;5.40;42.90
27492;DHT22;14927;51.210;6.838;2024-01-10T16:31:57;5.20;42.90
27492;DHT22;14927;51.210;6.838;2024-01-10T16:34:50;5.30;43.10
27492;DHT22;14927;51.210;6.838;2024-01-10T16:37:35;5.20;43.20
27492;DHT22;14927;51.210;6.838;2024-01-10T16:40:19;5.20;43.20
27492;DHT22;14927;51.210;6.838;2024-01-10T16:43:04;5.10;43.20
27492;DHT22;14927;51.210;6.838;2024-01-10T16:45:49;5.10;43.20
27492;DHT22;14927;51.210;6.838;2024-01-10T16:48:33;5.10;43.30
27492;DHT22;14927;51.210;6.838;2024-01-10T16:51:21;5.00;43.30
27492;DHT22;14927;51.210;6.838;2024-01-10T16:54:05;5.00;43.40
27492;DHT22;14927;51.210;6.838;2024-01-10T16:56:50;5.00;43.50
27492;DHT22;14927;51.210;6.838;2024-01-10T16:59:35;4.90;43.50
27492;DHT22;14927;51.210;6.838;2024-01-10T17:02:19;4.90;43.60
27492;DHT22;14927;51.210;6.838;2024-01-10T17:05:04;5.00;43.70
27492;DHT22;14927;51.210;6.838;2024-01-10T17:07:50;4.80;43.80
27492;DHT22;14927;51.210;6.838;2024-01-10T17:10:35;4.80;43.90
27492;DHT22;14927;51.210;6.838;2024-01-10T17:13:21;4.80;44.00
27492;DHT22;14927;51.210;6.838;2024-01-10T17:16:07;4.70;44.10
27492;DHT22;14927;51.210;6.838;2024-01-10T17:18:52;4.70;44.20
27492;DHT22;14927;51.210;6.838;2024-01-10T17:21:36;4.70;44.30
27492;DHT22;14927;51.210;6.838;2024-01-10T17:24:22;4.60;44.40
27492;DHT22;14927;51.210;6.838;2024-01-10T17:27:06;4.60;44.50
27492;DHT22;14927;51.210;6.838;2024-01-10T17:29:51;4.60;44.60
27492;DHT22;14927;51.210;6.838;2024-01-10T17:32:36;4.60;44.70
27492;DHT22;14927;51.210;6.838;2024-01-10T17:35:20;4.50;44.70
27492;DHT22;14927;51.210;6.838;2024-01-10T17:38:05;4.60;44.80
27492;DHT22;14927;51.210;6.838;2024-01-10T17:40:52;4.70;44.90
27492;DHT22;14927;51.210;6.838;2024-01-10T17:43:38;4.50;44.90
27492;DHT22;14927;51.210;6.838;2024-01-10T17:46:24;4.50;45.00
27492;DHT22;14927;51.210;6.838;2024-01-10T17:49:08;4.40;45.00
27492;DHT22;14927;51.210;6.838;2024-01-10T17:51:54;4.40;45.10